Time,TemperatureF,DewpointF,PressureIn,WindDirection,WindDirectionDegrees,WindSpeedMPH,WindSpeedGustMPH,Humidity,HourlyPrecipIn,Conditions,Clouds,dailyrainin,SoftwareType,DateUTC
2013-11-07 00:00:00,51.3,50.8,30.17,West,264,0.0,1.0,98,0.00,,OVC055,0.08,VWS V14.01,2013-11-07 05:00:00,
2013-11-07 00:01:00,51.3,50.8,30.17,West,264,0.0,0.0,98,0.00,,OVC055,0.00,VWS V14.01,2013-11-07 05:01:00,
2013-11-07 00:06:00,51.2,50.7,30.17,West,264,0.0,0.0,98,0.00,,OVC055,0.00,VWS V14.01,2013-11-07 05:06:00,
2013-11-07 00:11:00,51.0,50.5,30.17,West,264,0.0,0.0,98,0.00,,OVC055,0.00,VWS V14.01,2013-11-07 05:11:00,
2013-11-07 00:16:00,51.0,50.5,30.17,West,264,0.0,0.0,98,0.00,,OVC055,0.00,VWS V14.01,2013-11-07 05:16:00,
2013-11-07 00:21:00,51.0,50.5,30.17,West,264,0.0,0.0,98,0.00,,OVC055,0.00,VWS V14.01,2013-11-07 05:21:00,
2013-11-07 00:26:00,50.8,50.3,30.17,West,264,0.0,0.0,98,0.00,,OVC055,0.00,VWS V14.01,2013-11-07 05:26:00,
2013-11-07 00:30:00,50.8,50.3,30.17,West,264,0.0,0.0,98,0.00,,OVC055,0.00,VWS V14.01,2013-11-07 05:30:00,
2013-11-07 00:31:00,50.8,50.5,30.16,West,264,0.0,0.0,99,0.00,,OVC055,0.00,VWS V14.01,2013-11-07 05:31:00,
2013-11-07 00:36:00,50.9,50.6,30.16,West,264,0.0,0.0,99,0.00,,OVC055,0.00,VWS V14.01,2013-11-07 05:36:00,
2013-11-07 00:41:00,51.0,50.7,30.16,West,264,0.0,0.0,99,0.00,,OVC055,0.00,VWS V14.01,2013-11-07 05:41:00,
2013-11-07 00:46:00,51.0,50.7,30.16,West,264,0.0,0.0,99,0.00,,OVC055,0.00,VWS V14.01,2013-11-07 05:46:00,
2013-11-07 00:50:00,50.8,50.5,30.16,West,264,0.0,0.0,99,0.00,,OVC055,0.00,VWS V14.01,2013-11-07 05:50:00,
2013-11-07 00:55:00,50.8,50.5,30.15,West,264,0.0,0.0,99,0.00,,OVC055,0.00,VWS V14.01,2013-11-07 05:55:00,
2013-11-07 01:00:00,51.0,50.7,30.15,West,264,0.0,0.0,99,0.00,,OVC055,0.00,VWS V14.01,2013-11-07 06:00:00,
2013-11-07 01:05:00,51.0,50.7,30.15,West,264,0.0,0.0,99,0.00,,OVC055,0.00,VWS V14.01,2013-11-07 06:05:00,
2013-11-07 01:10:00,50.9,50.6,30.15,West,264,0.0,0.0,99,0.00,,OVC055,0.00,VWS V14.01,2013-11-07 06:10:00,
2013-11-07 01:15:00,50.8,50.5,30.15,West,264,0.0,1.0,99,0.00,,OVC055,0.00,VWS V14.01,2013-11-07 06:15:00,
2013-11-07 01:20:00,50.8,50.5,30.14,West,264,0.0,1.0,99,0.00,,OVC055,0.00,VWS V14.01,2013-11-07 06:20:00,
2013-11-07 01:25:00,51.0,50.7,30.14,West,264,0.0,1.0,99,0.00,,OVC055,0.00,VWS V14.01,2013-11-07 06:25:00,
2013-11-07 01:30:00,51.1,50.8,30.14,West,264,0.0,0.0,99,0.00,,OVC055,0.00,VWS V14.01,2013-11-07 06:30:00,
2013-11-07 01:35:00,51.4,51.1,30.14,West,264,0.0,1.0,99,0.00,,OVC055,0.00,VWS V14.01,2013-11-07 06:35:00,
2013-11-07 01:40:00,51.5,51.2,30.14,West,264,0.0,1.0,99,0.00,,OVC055,0.00,VWS V14.01,2013-11-07 06:40:00,
2013-11-07 01:45:00,51.4,51.1,30.13,West,264,0.0,1.0,99,0.00,,OVC055,0.00,VWS V14.01,2013-11-07 06:45:00,
2013-11-07 01:50:00,51.2,50.9,30.12,West,264,0.0,1.0,99,0.00,,OVC055,0.00,VWS V14.01,2013-11-07 06:50:00,
2013-11-07 01:55:00,51.2,50.9,30.12,West,264,0.0,1.0,99,0.00,,OVC055,0.00,VWS V14.01,2013-11-07 06:55:00,
2013-11-07 02:00:00,51.2,50.9,30.12,West,264,0.0,0.0,99,0.00,,OVC055,0.00,VWS V14.01,2013-11-07 07:00:00,
2013-11-07 02:05:00,51.0,50.7,30.12,West,264,0.0,0.0,99,0.00,,OVC055,0.00,VWS V14.01,2013-11-07 07:05:00,
2013-11-07 02:10:00,50.9,50.6,30.11,West,264,0.0,0.0,99,0.00,,OVC055,0.00,VWS V14.01,2013-11-07 07:10:00,
2013-11-07 02:15:00,51.0,50.7,30.11,West,264,0.0,0.0,99,0.00,,OVC055,0.00,VWS V14.01,2013-11-07 07:15:00,
2013-11-07 02:20:00,51.1,50.8,30.11,West,264,0.0,0.0,99,0.00,,OVC055,0.00,VWS V14.01,2013-11-07 07:20:00,
2013-11-07 02:25:00,51.2,50.9,30.11,West,264,0.0,0.0,99,0.00,,OVC055,0.00,VWS V14.01,2013-11-07 07:25:00,
2013-11-07 02:30:00,51.1,50.8,30.10,West,264,0.0,0.0,99,0.00,,OVC055,0.00,VWS V14.01,2013-11-07 07:30:00,
2013-11-07 02:35:00,50.9,50.6,30.10,West,264,0.0,0.0,99,0.00,,OVC055,0.00,VWS V14.01,2013-11-07 07:35:00,
2013-11-07 02:40:00,50.7,50.4,30.10,West,264,0.0,0.0,99,0.00,,OVC055,0.00,VWS V14.01,2013-11-07 07:40:00,
2013-11-07 02:45:00,50.7,50.4,30.09,West,264,0.0,0.0,99,0.00,,OVC055,0.00,VWS V14.01,2013-11-07 07:45:00,
2013-11-07 02:50:00,50.6,50.3,30.09,West,264,0.0,0.0,99,0.00,,OVC055,0.00,VWS V14.01,2013-11-07 07:50:00,
2013-11-07 02:55:00,50.5,50.2,30.09,West,264,0.0,0.0,99,0.00,,OVC055,0.00,VWS V14.01,2013-11-07 07:55:00,
2013-11-07 03:00:00,50.4,50.1,30.08,West,264,0.0,0.0,99,0.00,,OVC055,0.00,VWS V14.01,2013-11-07 08:00:00,
2013-11-07 03:05:00,50.4,50.1,30.08,West,264,0.0,0.0,99,0.00,,OVC055,0.00,VWS V14.01,2013-11-07 08:05:00,
2013-11-07 03:10:00,50.3,50.0,30.07,West,264,0.0,0.0,99,0.00,,OVC055,0.00,VWS V14.01,2013-11-07 08:10:00,
2013-11-07 03:15:00,50.2,49.9,30.07,West,264,0.0,0.0,99,0.00,,OVC055,0.00,VWS V14.01,2013-11-07 08:15:00,
2013-11-07 03:20:00,50.0,49.7,30.08,West,264,0.0,0.0,99,0.00,,OVC055,0.00,VWS V14.01,2013-11-07 08:20:00,
2013-11-07 03:25:00,50.2,49.9,30.08,West,264,0.0,1.0,99,0.00,,OVC055,0.00,VWS V14.01,2013-11-07 08:25:00,
2013-11-07 03:30:00,50.6,50.6,30.08,West,264,0.0,0.0,100,0.00,,OVC055,0.00,VWS V14.01,2013-11-07 08:30:00,
2013-11-07 03:35:00,51.2,51.2,30.07,West,264,0.0,0.0,100,0.00,,OVC055,0.00,VWS V14.01,2013-11-07 08:35:00,
2013-11-07 03:40:00,51.6,51.6,30.07,SSW,209,1.0,2.0,100,0.00,,OVC055,0.00,VWS V14.01,2013-11-07 08:40:00,
2013-11-07 03:45:00,51.4,51.4,30.06,SSW,209,1.0,2.0,100,0.00,,OVC055,0.00,VWS V14.01,2013-11-07 08:45:00,
2013-11-07 03:50:00,51.0,50.7,30.06,SSW,209,0.0,2.0,99,0.00,,OVC055,0.00,VWS V14.01,2013-11-07 08:50:00,
2013-11-07 03:55:00,51.0,50.7,30.06,SSW,209,0.0,2.0,99,0.00,,OVC055,0.00,VWS V14.01,2013-11-07 08:55:00,
2013-11-07 04:00:00,51.1,50.8,30.06,SSW,209,0.0,0.0,99,0.00,,OVC055,0.00,VWS V14.01,2013-11-07 09:00:00,
2013-11-07 04:05:00,51.5,51.5,30.06,SSW,209,0.0,1.0,100,0.00,,OVC055,0.00,VWS V14.01,2013-11-07 09:05:00,
2013-11-07 04:10:00,52.2,52.2,30.06,SW,227,0.0,2.0,100,0.00,,OVC055,0.00,VWS V14.01,2013-11-07 09:10:00,
2013-11-07 04:15:00,52.6,52.6,30.06,SW,227,0.0,2.0,100,0.00,,OVC055,0.00,VWS V14.01,2013-11-07 09:15:00,
2013-11-07 04:20:00,52.9,52.9,30.06,NNW,342,0.0,2.0,100,0.00,,OVC055,0.00,VWS V14.01,2013-11-07 09:20:00,
2013-11-07 04:25:00,53.2,52.9,30.06,East,91,0.0,2.0,99,0.00,,OVC055,0.00,VWS V14.01,2013-11-07 09:25:00,
2013-11-07 04:30:00,53.4,53.1,30.06,East,91,0.0,1.0,99,0.00,,OVC055,0.00,VWS V14.01,2013-11-07 09:30:00,
2013-11-07 04:35:00,53.6,53.0,30.06,East,92,1.0,2.0,98,0.00,,OVC055,0.00,VWS V14.01,2013-11-07 09:35:00,
2013-11-07 04:40:00,53.9,53.3,30.06,SSE,158,0.0,3.0,98,0.00,,OVC055,0.00,VWS V14.01,2013-11-07 09:40:00,
2013-11-07 04:45:00,54.2,53.7,30.05,SSE,158,1.0,3.0,98,0.00,,OVC055,0.00,VWS V14.01,2013-11-07 09:45:00,
2013-11-07 04:50:00,54.6,53.8,30.05,East,88,0.0,3.0,97,0.00,,OVC055,0.00,VWS V14.01,2013-11-07 09:50:00,
2013-11-07 04:55:00,54.7,53.9,30.06,East,96,0.0,3.0,97,0.00,,OVC055,0.00,VWS V14.01,2013-11-07 09:55:00,
2013-11-07 05:00:00,54.9,54.1,30.05,ESE,105,0.0,1.0,97,0.00,,OVC055,0.00,VWS V14.01,2013-11-07 10:00:00,
2013-11-07 05:05:00,55.2,54.4,30.05,SW,217,1.0,4.0,97,0.00,,OVC055,0.00,VWS V14.01,2013-11-07 10:05:00,
2013-11-07 05:10:00,55.7,54.9,30.05,SW,218,1.0,5.0,97,0.00,,OVC055,0.00,VWS V14.01,2013-11-07 10:10:00,
2013-11-07 05:15:00,55.9,54.8,30.05,SSW,208,0.0,5.0,96,0.00,,OVC055,0.00,VWS V14.01,2013-11-07 10:15:00,
2013-11-07 05:20:00,56.2,54.8,30.05,SW,231,1.0,5.0,95,0.00,,OVC055,0.00,VWS V14.01,2013-11-07 10:20:00,
2013-11-07 05:25:00,56.2,54.8,30.05,SW,231,0.0,5.0,95,0.00,,OVC055,0.00,VWS V14.01,2013-11-07 10:25:00,
2013-11-07 05:30:00,56.3,54.9,30.06,SW,225,1.0,1.0,95,0.00,,OVC055,0.00,VWS V14.01,2013-11-07 10:30:00,
2013-11-07 05:35:00,56.3,54.9,30.05,SW,225,0.0,1.0,95,0.00,,OVC055,0.00,VWS V14.01,2013-11-07 10:35:00,
2013-11-07 05:40:00,56.2,54.8,30.05,SW,225,0.0,1.0,95,0.00,,OVC055,0.00,VWS V14.01,2013-11-07 10:40:00,
2013-11-07 05:45:00,56.4,55.0,30.05,SW,231,1.0,2.0,95,0.00,,OVC055,0.00,VWS V14.01,2013-11-07 10:45:00,
2013-11-07 05:50:00,56.5,55.1,30.05,SSW,207,2.0,2.0,95,0.00,,OVC055,0.00,VWS V14.01,2013-11-07 10:50:00,
2013-11-07 05:55:00,56.6,55.2,30.05,SSW,207,0.0,2.0,95,0.00,,OVC055,0.00,VWS V14.01,2013-11-07 10:55:00,
2013-11-07 06:00:00,56.7,55.3,30.05,SSW,207,0.0,0.0,95,0.00,,OVC055,0.00,VWS V14.01,2013-11-07 11:00:00,
2013-11-07 06:05:00,56.6,55.2,30.05,SSW,207,0.0,0.0,95,0.00,,OVC055,0.00,VWS V14.01,2013-11-07 11:05:00,
2013-11-07 06:10:00,56.6,55.5,30.05,SSW,207,0.0,0.0,96,0.00,,OVC055,0.00,VWS V14.01,2013-11-07 11:10:00,
2013-11-07 06:15:00,56.5,55.4,30.05,SSW,207,0.0,0.0,96,0.00,,OVC055,0.00,VWS V14.01,2013-11-07 11:15:00,
2013-11-07 06:20:00,56.4,55.3,30.05,SSW,207,0.0,0.0,96,0.00,,OVC055,0.00,VWS V14.01,2013-11-07 11:20:00,
2013-11-07 06:25:00,56.2,55.1,30.04,SSW,207,0.0,1.0,96,0.00,,OVC055,0.00,VWS V14.01,2013-11-07 11:25:00,
2013-11-07 06:30:00,56.1,55.0,30.05,SSW,207,0.0,0.0,96,0.00,,OVC055,0.00,VWS V14.01,2013-11-07 11:30:00,
2013-11-07 06:34:00,56.0,54.9,30.04,SSW,207,0.0,2.0,96,0.00,,OVC055,0.00,VWS V14.01,2013-11-07 11:34:00,
2013-11-07 06:39:00,56.0,54.9,30.04,SSW,207,0.0,2.0,96,0.00,,OVC055,0.00,VWS V14.01,2013-11-07 11:39:00,
2013-11-07 06:44:00,55.9,55.1,30.04,SSW,207,0.0,2.0,97,0.00,,OVC055,0.00,VWS V14.01,2013-11-07 11:44:00,
2013-11-07 06:49:00,55.9,55.1,30.04,SSW,207,0.0,2.0,97,0.00,,OVC055,0.00,VWS V14.01,2013-11-07 11:49:00,
2013-11-07 06:54:00,55.8,55.0,30.04,SSW,207,0.0,2.0,97,0.00,,OVC055,0.00,VWS V14.01,2013-11-07 11:54:00,
2013-11-07 06:59:00,55.7,54.9,30.04,SSW,207,0.0,0.0,97,0.00,,OVC055,0.00,VWS V14.01,2013-11-07 11:59:00,
2013-11-07 07:00:00,55.7,54.9,30.04,SSW,207,0.0,2.0,97,0.00,,OVC055,0.00,VWS V14.01,2013-11-07 12:00:00,
2013-11-07 07:04:00,55.6,54.8,30.05,SSW,207,0.0,0.0,97,0.00,,OVC055,0.00,VWS V14.01,2013-11-07 12:04:00,
2013-11-07 07:09:00,55.5,54.7,30.05,SSW,207,0.0,0.0,97,0.00,,OVC055,0.00,VWS V14.01,2013-11-07 12:09:00,
2013-11-07 07:14:00,55.5,55.0,30.04,SSW,207,0.0,0.0,98,0.01,,OVC055,0.01,VWS V14.01,2013-11-07 12:14:00,
2013-11-07 07:19:00,55.5,55.0,30.04,SSW,207,0.0,1.0,98,0.02,,OVC055,0.02,VWS V14.01,2013-11-07 12:19:00,
2013-11-07 07:24:00,55.5,55.0,30.05,SSW,207,0.0,1.0,98,0.02,,OVC055,0.02,VWS V14.01,2013-11-07 12:24:00,
2013-11-07 07:29:00,55.4,55.1,30.05,SSW,207,0.0,0.0,99,0.02,,OVC055,0.02,VWS V14.01,2013-11-07 12:29:00,
2013-11-07 07:30:00,55.4,55.1,30.05,SSW,207,0.0,1.0,99,0.02,,OVC055,0.02,VWS V14.01,2013-11-07 12:30:00,
2013-11-07 07:34:00,55.4,55.1,30.05,SSW,207,0.0,0.0,99,0.02,,OVC055,0.02,VWS V14.01,2013-11-07 12:34:00,
2013-11-07 07:38:00,55.4,55.1,30.05,SSW,207,0.0,0.0,99,0.02,,OVC055,0.02,VWS V14.01,2013-11-07 12:38:00,
2013-11-07 07:43:00,55.4,55.1,30.04,SSW,207,0.0,0.0,99,0.03,,OVC055,0.03,VWS V14.01,2013-11-07 12:43:00,
2013-11-07 07:48:00,55.4,55.1,30.05,SSW,207,0.0,0.0,99,0.03,,OVC055,0.03,VWS V14.01,2013-11-07 12:48:00,
2013-11-07 07:53:00,55.4,55.1,30.05,SSW,207,0.0,0.0,99,0.03,,OVC055,0.03,VWS V14.01,2013-11-07 12:53:00,
2013-11-07 07:58:00,55.5,55.2,30.05,SSW,207,0.0,1.0,99,0.03,,OVC055,0.03,VWS V14.01,2013-11-07 12:58:00,
2013-11-07 08:00:00,55.5,55.2,30.05,SSW,207,0.0,2.0,99,0.03,,OVC055,0.03,VWS V14.01,2013-11-07 13:00:00,
2013-11-07 08:03:00,55.6,55.3,30.05,SW,227,0.0,3.0,99,0.03,,OVC055,0.03,VWS V14.01,2013-11-07 13:03:00,
2013-11-07 08:08:00,55.7,55.7,30.05,SW,227,0.0,3.0,100,0.03,,OVC055,0.03,VWS V14.01,2013-11-07 13:08:00,
2013-11-07 08:13:00,55.8,55.8,30.05,SW,227,0.0,3.0,100,0.03,,OVC055,0.03,VWS V14.01,2013-11-07 13:13:00,
2013-11-07 08:18:00,55.9,55.9,30.04,SW,227,1.0,3.0,100,0.03,,OVC055,0.03,VWS V14.01,2013-11-07 13:18:00,
2013-11-07 08:23:00,55.8,55.8,30.03,SW,227,0.0,3.0,100,0.03,,OVC055,0.03,VWS V14.01,2013-11-07 13:23:00,
2013-11-07 08:28:00,55.9,55.9,30.04,SW,227,0.0,0.0,100,0.01,,OVC055,0.03,VWS V14.01,2013-11-07 13:28:00,
2013-11-07 08:30:00,55.9,55.9,30.04,SW,227,0.0,3.0,100,0.03,,OVC055,0.03,VWS V14.01,2013-11-07 13:30:00,
2013-11-07 08:33:00,56.0,56.0,30.04,SW,227,1.0,1.0,100,0.01,,OVC055,0.03,VWS V14.01,2013-11-07 13:33:00,
2013-11-07 08:38:00,56.1,56.1,30.04,SW,229,1.0,2.0,100,0.01,,OVC055,0.03,VWS V14.01,2013-11-07 13:38:00,
2013-11-07 08:43:00,56.2,56.2,30.04,SW,229,0.0,2.0,100,0.01,,OVC055,0.03,VWS V14.01,2013-11-07 13:43:00,
2013-11-07 08:48:00,56.2,56.2,30.03,NNE,29,1.0,3.0,100,0.01,,OVC055,0.03,VWS V14.01,2013-11-07 13:48:00,
2013-11-07 08:53:00,56.3,56.3,30.03,NNE,29,0.0,3.0,100,0.01,,OVC055,0.03,VWS V14.01,2013-11-07 13:53:00,
2013-11-07 08:58:00,56.4,56.4,30.03,NNE,29,0.0,1.0,100,0.00,,OVC055,0.03,VWS V14.01,2013-11-07 13:58:00,
2013-11-07 09:00:00,56.3,56.3,30.03,NNE,29,1.0,3.0,100,0.01,,OVC055,0.03,VWS V14.01,2013-11-07 14:00:00,
2013-11-07 09:03:00,56.4,56.4,30.03,NNE,29,3.0,4.0,100,0.00,,OVC055,0.03,VWS V14.01,2013-11-07 14:03:00,
2013-11-07 09:08:00,56.4,56.4,30.03,NNE,29,0.0,4.0,100,0.00,,OVC055,0.03,VWS V14.01,2013-11-07 14:08:00,
2013-11-07 09:13:00,56.5,56.5,30.03,NNE,29,0.0,4.0,100,0.00,,OVC055,0.03,VWS V14.01,2013-11-07 14:13:00,
2013-11-07 09:18:00,56.6,56.3,30.03,NNE,29,0.0,4.0,99,0.00,,OVC055,0.03,VWS V14.01,2013-11-07 14:18:00,
2013-11-07 09:23:00,56.9,56.6,30.03,NNE,29,0.0,4.0,99,0.00,,OVC055,0.03,VWS V14.01,2013-11-07 14:23:00,
2013-11-07 09:28:00,56.9,56.6,30.02,NNE,29,0.0,0.0,99,0.00,,OVC055,0.03,VWS V14.01,2013-11-07 14:28:00,
2013-11-07 09:30:00,56.9,56.6,30.02,NNE,29,0.0,4.0,99,0.00,,OVC055,0.03,VWS V14.01,2013-11-07 14:30:00,
2013-11-07 09:33:00,57.1,56.8,30.03,NNE,29,0.0,1.0,99,0.00,,OVC055,0.03,VWS V14.01,2013-11-07 14:33:00,
2013-11-07 09:38:00,57.3,57.0,30.03,NNE,29,0.0,1.0,99,0.00,,OVC055,0.03,VWS V14.01,2013-11-07 14:38:00,
2013-11-07 09:43:00,57.5,57.2,30.03,NNE,29,0.0,3.0,99,0.00,,OVC055,0.03,VWS V14.01,2013-11-07 14:43:00,
2013-11-07 09:48:00,57.6,57.3,30.03,NNE,29,0.0,3.0,99,0.00,,OVC055,0.03,VWS V14.01,2013-11-07 14:48:00,
2013-11-07 09:53:00,57.7,57.1,30.03,NNE,29,0.0,3.0,98,0.00,,OVC055,0.03,VWS V14.01,2013-11-07 14:53:00,
2013-11-07 09:58:00,57.9,57.3,30.03,NNE,29,0.0,0.0,98,0.00,,OVC055,0.03,VWS V14.01,2013-11-07 14:58:00,
2013-11-07 10:00:00,57.8,57.2,30.03,NNE,29,0.0,3.0,98,0.00,,OVC055,0.03,VWS V14.01,2013-11-07 15:00:00,
2013-11-07 10:03:00,58.1,57.3,30.03,NNE,29,0.0,3.0,97,0.00,,OVC055,0.03,VWS V14.01,2013-11-07 15:03:00,
2013-11-07 10:08:00,58.6,58.0,30.03,NNE,29,1.0,3.0,98,0.00,,OVC055,0.03,VWS V14.01,2013-11-07 15:08:00,
2013-11-07 10:13:00,58.9,57.8,30.03,NNE,29,0.0,3.0,96,0.00,,OVC055,0.03,VWS V14.01,2013-11-07 15:13:00,
2013-11-07 10:18:00,59.3,58.2,30.03,NNE,14,2.0,5.0,96,0.00,,OVC055,0.03,VWS V14.01,2013-11-07 15:18:00,
2013-11-07 10:23:00,59.5,58.1,30.03,NNE,19,3.0,5.0,95,0.00,,OVC055,0.03,VWS V14.01,2013-11-07 15:23:00,
2013-11-07 10:28:00,59.6,58.2,30.03,NE,40,6.0,6.0,95,0.00,,OVC055,0.03,VWS V14.01,2013-11-07 15:28:00,
2013-11-07 10:30:00,59.6,58.5,30.03,NNE,30,5.0,6.0,96,0.00,,OVC055,0.03,VWS V14.01,2013-11-07 15:30:00,
2013-11-07 10:33:00,59.6,58.2,30.03,NE,48,4.0,7.0,95,0.00,,OVC055,0.03,VWS V14.01,2013-11-07 15:33:00,
2013-11-07 10:38:00,59.6,58.2,30.03,ENE,61,3.0,7.0,95,0.00,,OVC055,0.03,VWS V14.01,2013-11-07 15:38:00,
2013-11-07 10:43:00,59.6,57.9,30.04,North,5,5.0,7.0,94,0.00,,OVC055,0.03,VWS V14.01,2013-11-07 15:43:00,
2013-11-07 10:48:00,59.3,57.6,30.03,NE,40,1.0,7.0,94,0.00,,OVC055,0.03,VWS V14.01,2013-11-07 15:48:00,
2013-11-07 10:53:00,59.5,58.1,30.03,NNE,31,0.0,7.0,95,0.00,,OVC055,0.03,VWS V14.01,2013-11-07 15:53:00,
2013-11-07 10:58:00,59.6,58.2,30.03,NNE,31,1.0,1.0,95,0.00,,OVC055,0.03,VWS V14.01,2013-11-07 15:58:00,
2013-11-07 11:00:00,59.6,58.2,30.03,NNE,31,1.0,7.0,95,0.00,,OVC055,0.03,VWS V14.01,2013-11-07 16:00:00,
2013-11-07 11:03:00,59.5,57.5,30.04,NNE,31,0.0,1.0,93,0.00,,OVC055,0.03,VWS V14.01,2013-11-07 16:03:00,
2013-11-07 11:08:00,59.2,56.9,30.03,NNE,32,2.0,4.0,92,0.00,,OVC055,0.03,VWS V14.01,2013-11-07 16:08:00,
2013-11-07 11:13:00,59.1,57.1,30.04,NNE,32,1.0,4.0,93,0.00,,OVC055,0.03,VWS V14.01,2013-11-07 16:13:00,
2013-11-07 11:18:00,59.1,57.1,30.04,NNE,32,1.0,4.0,93,0.00,,OVC055,0.03,VWS V14.01,2013-11-07 16:18:00,
2013-11-07 11:23:00,59.1,56.8,30.04,NNE,32,0.0,4.0,92,0.00,,OVC055,0.03,VWS V14.01,2013-11-07 16:23:00,
2013-11-07 11:28:00,59.5,57.5,30.03,NNE,32,0.0,0.0,93,0.00,,OVC055,0.03,VWS V14.01,2013-11-07 16:28:00,
2013-11-07 11:30:00,59.4,57.4,30.03,NNE,32,0.0,4.0,93,0.00,,OVC055,0.03,VWS V14.01,2013-11-07 16:30:00,
2013-11-07 11:33:00,60.0,58.0,30.03,NNE,32,0.0,4.0,93,0.00,,OVC055,0.03,VWS V14.01,2013-11-07 16:33:00,
2013-11-07 11:38:00,60.4,57.8,30.03,NNE,32,1.0,4.0,91,0.00,,OVC055,0.03,VWS V14.01,2013-11-07 16:38:00,
2013-11-07 11:43:00,60.8,57.5,30.03,NNE,32,0.0,4.0,89,0.00,,OVC055,0.03,VWS V14.01,2013-11-07 16:43:00,
2013-11-07 11:48:00,61.1,57.5,30.03,NNE,32,0.0,4.0,88,0.00,,OVC055,0.03,VWS V14.01,2013-11-07 16:48:00,
2013-11-07 11:53:00,61.4,57.5,30.03,NNE,32,0.0,4.0,87,0.00,,OVC055,0.03,VWS V14.01,2013-11-07 16:53:00,
2013-11-07 11:58:00,61.6,57.0,30.03,NNE,32,0.0,1.0,85,0.00,,OVC055,0.03,VWS V14.01,2013-11-07 16:58:00,
2013-11-07 12:00:00,61.6,57.0,30.03,NNE,32,0.0,4.0,85,0.00,,OVC055,0.03,VWS V14.01,2013-11-07 17:00:00,
2013-11-07 12:03:00,62.5,57.3,30.02,NE,42,1.0,3.0,83,0.00,,OVC055,0.03,VWS V14.01,2013-11-07 17:03:00,
2013-11-07 12:08:00,62.7,56.1,30.02,ENE,61,1.0,5.0,79,0.00,,OVC055,0.03,VWS V14.01,2013-11-07 17:08:00,
2013-11-07 12:13:00,62.6,56.7,30.02,NNE,19,1.0,5.0,81,0.00,,OVC055,0.03,VWS V14.01,2013-11-07 17:13:00,
2013-11-07 12:18:00,62.8,56.5,30.02,NNE,12,0.0,5.0,80,0.00,,OVC055,0.03,VWS V14.01,2013-11-07 17:18:00,
2013-11-07 12:23:00,62.9,56.3,30.02,NE,47,0.0,5.0,79,0.00,,OVC055,0.03,VWS V14.01,2013-11-07 17:23:00,
2013-11-07 12:28:00,62.9,55.6,30.01,East,80,0.0,2.0,77,0.00,,OVC055,0.03,VWS V14.01,2013-11-07 17:28:00,
2013-11-07 12:30:00,62.9,55.6,30.02,East,80,0.0,6.0,77,0.00,,OVC055,0.03,VWS V14.01,2013-11-07 17:30:00,
2013-11-07 12:33:00,63.1,55.8,30.01,ENE,66,1.0,3.0,77,0.00,,OVC055,0.03,VWS V14.01,2013-11-07 17:33:00,
2013-11-07 12:38:00,63.5,55.4,30.01,ENE,73,2.0,4.0,75,0.00,,OVC055,0.03,VWS V14.01,2013-11-07 17:38:00,
2013-11-07 12:43:00,63.8,56.1,30.01,ENE,73,0.0,4.0,76,0.00,,OVC055,0.03,VWS V14.01,2013-11-07 17:43:00,
2013-11-07 12:48:00,63.8,56.1,30.01,NE,54,3.0,5.0,76,0.00,,OVC055,0.03,VWS V14.01,2013-11-07 17:48:00,
2013-11-07 12:53:00,63.3,54.9,30.01,ENE,65,2.0,5.0,74,0.00,,OVC055,0.03,VWS V14.01,2013-11-07 17:53:00,
2013-11-07 12:58:00,63.4,55.0,30.01,NE,48,0.0,5.0,74,0.00,,OVC055,0.03,VWS V14.01,2013-11-07 17:58:00,
2013-11-07 13:00:00,63.4,55.0,30.01,NE,48,1.0,5.0,74,0.00,,OVC055,0.03,VWS V14.01,2013-11-07 18:00:00,
2013-11-07 13:03:00,63.2,54.0,30.01,ENE,57,4.0,5.0,72,0.00,,OVC055,0.03,VWS V14.01,2013-11-07 18:03:00,
2013-11-07 13:08:00,63.1,53.9,30.01,East,86,0.0,5.0,72,0.00,,OVC055,0.03,VWS V14.01,2013-11-07 18:08:00,
2013-11-07 13:13:00,63.3,55.2,30.01,SE,146,1.0,5.0,75,0.00,,OVC055,0.03,VWS V14.01,2013-11-07 18:13:00,
2013-11-07 13:18:00,63.5,54.7,30.01,NE,44,4.0,5.0,73,0.00,,OVC055,0.03,VWS V14.01,2013-11-07 18:18:00,
2013-11-07 13:23:00,62.9,53.4,30.01,NE,51,1.0,7.0,71,0.00,,OVC055,0.03,VWS V14.01,2013-11-07 18:23:00,
2013-11-07 13:28:00,62.8,53.3,30.01,NE,55,4.0,7.0,71,0.00,,OVC055,0.03,VWS V14.01,2013-11-07 18:28:00,
2013-11-07 13:30:00,62.8,53.3,30.01,NE,53,4.0,7.0,71,0.00,,OVC055,0.03,VWS V14.01,2013-11-07 18:30:00,
2013-11-07 13:32:00,62.9,53.8,30.01,ENE,61,3.0,4.0,72,0.00,,OVC055,0.03,VWS V14.01,2013-11-07 18:32:00,
2013-11-07 13:37:00,63.1,52.8,30.01,ENE,74,0.0,4.0,69,0.00,,OVC055,0.03,VWS V14.01,2013-11-07 18:37:00,
2013-11-07 13:42:00,63.2,50.8,30.00,NNE,18,2.0,7.0,64,0.00,,OVC055,0.03,VWS V14.01,2013-11-07 18:42:00,
2013-11-07 13:47:00,63.5,52.4,30.00,ENE,58,3.0,7.0,67,0.00,,OVC055,0.03,VWS V14.01,2013-11-07 18:47:00,
2013-11-07 13:52:00,63.5,51.5,30.00,NE,37,5.0,7.0,65,0.00,,OVC055,0.03,VWS V14.01,2013-11-07 18:52:00,
2013-11-07 13:57:00,63.4,49.7,30.00,ENE,57,3.0,9.0,61,0.00,,OVC055,0.03,VWS V14.01,2013-11-07 18:57:00,
2013-11-07 14:00:00,63.4,49.7,30.00,ENE,62,4.0,9.0,61,0.00,,OVC055,0.03,VWS V14.01,2013-11-07 19:00:00,
2013-11-07 14:02:00,62.8,49.6,30.01,NE,53,4.0,9.0,62,0.00,,OVC055,0.03,VWS V14.01,2013-11-07 19:02:00,
2013-11-07 14:07:00,62.6,49.0,30.00,NE,44,5.0,9.0,61,0.00,,OVC055,0.03,VWS V14.01,2013-11-07 19:07:00,
2013-11-07 14:12:00,62.6,49.8,30.00,ENE,65,1.0,9.0,63,0.00,,OVC055,0.03,VWS V14.01,2013-11-07 19:12:00,
2013-11-07 14:17:00,62.5,49.8,30.01,ENE,64,3.0,9.0,63,0.00,,OVC055,0.03,VWS V14.01,2013-11-07 19:17:00,
2013-11-07 14:23:00,62.4,48.8,30.01,NE,51,4.0,9.0,61,0.00,,OVC055,0.03,VWS V14.01,2013-11-07 19:23:00,
2013-11-07 14:28:00,61.9,49.6,30.01,ENE,70,0.0,9.0,64,0.00,,OVC055,0.03,VWS V14.01,2013-11-07 19:28:00,
2013-11-07 14:30:00,61.9,49.6,30.01,ENE,70,0.0,9.0,64,0.00,,OVC055,0.03,VWS V14.01,2013-11-07 19:30:00,
2013-11-07 14:33:00,61.4,48.7,30.01,ENE,70,0.0,2.0,63,0.00,,OVC055,0.03,VWS V14.01,2013-11-07 19:33:00,
2013-11-07 14:38:00,61.2,48.9,30.01,ENE,70,1.0,2.0,64,0.00,,OVC055,0.03,VWS V14.01,2013-11-07 19:38:00,
2013-11-07 14:43:00,61.2,48.1,30.01,ENE,65,3.0,8.0,62,0.00,,OVC055,0.03,VWS V14.01,2013-11-07 19:43:00,
2013-11-07 14:48:00,61.3,46.4,30.01,ENE,76,3.0,8.0,58,0.00,,OVC055,0.03,VWS V14.01,2013-11-07 19:48:00,
2013-11-07 14:53:00,61.3,46.4,30.01,NE,36,4.0,8.0,58,0.00,,OVC055,0.03,VWS V14.01,2013-11-07 19:53:00,
2013-11-07 14:58:00,61.2,43.5,30.01,NE,42,10.0,12.0,52,0.00,,OVC055,0.03,VWS V14.01,2013-11-07 19:58:00,
2013-11-07 15:00:00,61.1,43.4,30.01,NE,42,11.0,12.0,52,0.00,,OVC055,0.03,VWS V14.01,2013-11-07 20:00:00,
2013-11-07 15:03:00,60.7,43.5,30.02,NE,49,7.0,12.0,53,0.01,,OVC055,0.04,VWS V14.01,2013-11-07 20:03:00,
2013-11-07 15:08:00,60.5,43.3,30.02,NE,34,6.0,12.0,53,0.01,,OVC055,0.04,VWS V14.01,2013-11-07 20:08:00,
2013-11-07 15:13:00,60.4,43.7,30.02,NE,41,6.0,12.0,54,0.01,,OVC055,0.04,VWS V14.01,2013-11-07 20:13:00,
2013-11-07 15:18:00,60.4,42.2,30.02,NE,36,4.0,12.0,51,0.01,,OVC055,0.04,VWS V14.01,2013-11-07 20:18:00,
2013-11-07 15:23:00,60.1,43.4,30.02,NNE,28,5.0,12.0,54,0.01,,OVC055,0.04,VWS V14.01,2013-11-07 20:23:00,
2013-11-07 15:27:00,59.5,41.4,30.02,NNE,21,11.0,13.0,51,0.01,,OVC055,0.04,VWS V14.01,2013-11-07 20:27:00,
2013-11-07 15:30:00,59.5,41.4,30.02,NNE,33,16.0,16.0,51,0.01,,OVC055,0.04,VWS V14.01,2013-11-07 20:30:00,
2013-11-07 15:32:00,59.0,42.9,30.02,NE,39,6.0,16.0,55,0.01,,OVC055,0.04,VWS V14.01,2013-11-07 20:32:00,
2013-11-07 15:37:00,58.4,42.8,30.03,NE,47,4.0,16.0,56,0.01,,OVC055,0.04,VWS V14.01,2013-11-07 20:37:00,
2013-11-07 15:42:00,58.1,42.5,30.03,ENE,59,2.0,16.0,56,0.01,,OVC055,0.04,VWS V14.01,2013-11-07 20:42:00,
2013-11-07 15:47:00,57.5,41.0,30.04,NNE,27,7.0,16.0,54,0.01,,OVC055,0.04,VWS V14.01,2013-11-07 20:47:00,
2013-11-07 15:52:00,57.0,39.1,30.04,NE,45,12.0,16.0,51,0.01,,OVC055,0.04,VWS V14.01,2013-11-07 20:52:00,
2013-11-07 15:57:00,56.2,37.8,30.05,NNE,27,9.0,16.0,50,0.01,,OVC055,0.04,VWS V14.01,2013-11-07 20:57:00,
2013-11-07 16:00:00,56.1,37.7,30.05,NNE,24,13.0,16.0,50,0.01,,OVC055,0.04,VWS V14.01,2013-11-07 21:00:00,
2013-11-07 16:02:00,55.2,36.9,30.05,NE,41,9.0,14.0,50,0.01,,OVC055,0.04,VWS V14.01,2013-11-07 21:02:00,
2013-11-07 16:07:00,54.8,37.0,30.05,NE,44,9.0,14.0,51,0.01,,OVC055,0.04,VWS V14.01,2013-11-07 21:07:00,
2013-11-07 16:12:00,54.4,36.2,30.06,ENE,65,5.0,14.0,50,0.01,,OVC055,0.04,VWS V14.01,2013-11-07 21:12:00,
2013-11-07 16:17:00,54.0,35.8,30.06,NE,36,4.0,14.0,50,0.01,,OVC055,0.04,VWS V14.01,2013-11-07 21:17:00,
2013-11-07 16:22:00,53.7,35.5,30.06,NNE,17,3.0,14.0,50,0.01,,OVC055,0.04,VWS V14.01,2013-11-07 21:22:00,
2013-11-07 16:27:00,53.5,35.8,30.07,NNE,30,8.0,14.0,51,0.01,,OVC055,0.04,VWS V14.01,2013-11-07 21:27:00,
2013-11-07 16:30:00,53.5,35.8,30.07,NE,36,6.0,14.0,51,0.01,,OVC055,0.04,VWS V14.01,2013-11-07 21:30:00,
2013-11-07 16:32:00,53.1,34.0,30.07,NE,40,4.0,9.0,48,0.00,,OVC055,0.04,VWS V14.01,2013-11-07 21:32:00,
2013-11-07 16:37:00,52.7,34.6,30.07,ENE,64,2.0,9.0,50,0.00,,OVC055,0.04,VWS V14.01,2013-11-07 21:37:00,
2013-11-07 16:42:00,52.3,34.2,30.07,NE,49,2.0,9.0,50,0.00,,OVC055,0.04,VWS V14.01,2013-11-07 21:42:00,
2013-11-07 16:47:00,52.0,34.5,30.08,NE,45,1.0,9.0,51,0.00,,OVC055,0.04,VWS V14.01,2013-11-07 21:47:00,
2013-11-07 16:52:00,51.7,32.7,30.08,NE,48,3.0,9.0,48,0.00,,OVC055,0.04,VWS V14.01,2013-11-07 21:52:00,
2013-11-07 16:57:00,51.6,32.0,30.08,NNE,20,1.0,10.0,47,0.00,,OVC055,0.04,VWS V14.01,2013-11-07 21:57:00,
2013-11-07 17:00:00,51.6,32.0,30.08,ENE,65,3.0,10.0,47,0.00,,OVC055,0.04,VWS V14.01,2013-11-07 22:00:00,
2013-11-07 17:02:00,51.4,31.9,30.08,North,9,9.0,9.0,47,0.00,,OVC055,0.04,VWS V14.01,2013-11-07 22:02:00,
2013-11-07 17:07:00,51.1,30.5,30.09,NNW,339,8.0,14.0,45,0.00,,OVC055,0.04,VWS V14.01,2013-11-07 22:07:00,
2013-11-07 17:12:00,50.8,30.2,30.09,NE,43,4.0,14.0,45,0.00,,OVC055,0.04,VWS V14.01,2013-11-07 22:12:00,
2013-11-07 17:17:00,50.6,29.5,30.09,North,350,7.0,14.0,44,0.00,,OVC055,0.04,VWS V14.01,2013-11-07 22:17:00,
2013-11-07 17:22:00,50.3,28.7,30.09,NE,45,10.0,14.0,43,0.00,,OVC055,0.04,VWS V14.01,2013-11-07 22:22:00,
2013-11-07 17:27:00,50.1,29.0,30.09,North,5,10.0,14.0,44,0.00,,OVC055,0.04,VWS V14.01,2013-11-07 22:27:00,
2013-11-07 17:30:00,50.1,29.0,30.09,NNE,13,16.0,16.0,44,0.00,,OVC055,0.04,VWS V14.01,2013-11-07 22:30:00,
2013-11-07 17:32:00,49.9,28.9,30.09,NNE,24,10.0,16.0,44,0.00,,OVC055,0.04,VWS V14.01,2013-11-07 22:32:00,
2013-11-07 17:37:00,49.6,29.7,30.09,NNE,28,4.0,16.0,46,0.00,,OVC055,0.04,VWS V14.01,2013-11-07 22:37:00,
2013-11-07 17:42:00,49.2,29.3,30.09,NE,38,6.0,16.0,46,0.00,,OVC055,0.04,VWS V14.01,2013-11-07 22:42:00,
2013-11-07 17:47:00,48.9,29.0,30.10,NNE,21,9.0,16.0,46,0.00,,OVC055,0.04,VWS V14.01,2013-11-07 22:47:00,
2013-11-07 17:52:00,48.8,28.4,30.10,NNE,16,11.0,16.0,45,0.00,,OVC055,0.04,VWS V14.01,2013-11-07 22:52:00,
2013-11-07 17:57:00,48.7,28.9,30.11,NNE,24,5.0,16.0,46,0.00,,OVC055,0.04,VWS V14.01,2013-11-07 22:57:00,
2013-11-07 18:00:00,48.7,28.9,30.11,NNE,30,5.0,16.0,46,0.00,,OVC055,0.04,VWS V14.01,2013-11-07 23:00:00,
2013-11-07 18:02:00,48.4,29.1,30.11,NE,41,7.0,13.0,47,0.00,,OVC055,0.04,VWS V14.01,2013-11-07 23:02:00,
2013-11-07 18:07:00,48.2,28.9,30.11,NNE,30,7.0,13.0,47,0.00,,OVC055,0.04,VWS V14.01,2013-11-07 23:07:00,
2013-11-07 18:12:00,47.9,29.2,30.11,ENE,67,5.0,13.0,48,0.00,,OVC055,0.04,VWS V14.01,2013-11-07 23:12:00,
2013-11-07 18:17:00,47.9,29.2,30.11,North,5,9.0,13.0,48,0.00,,OVC055,0.04,VWS V14.01,2013-11-07 23:17:00,
2013-11-07 18:22:00,47.6,28.9,30.12,NNE,12,5.0,13.0,48,0.00,,OVC055,0.04,VWS V14.01,2013-11-07 23:22:00,
2013-11-07 18:27:00,47.6,28.9,30.12,NNW,346,8.0,13.0,48,0.00,,OVC055,0.04,VWS V14.01,2013-11-07 23:27:00,
2013-11-07 18:30:00,47.6,28.9,30.12,NE,36,7.0,13.0,48,0.00,,OVC055,0.04,VWS V14.01,2013-11-07 23:30:00,
2013-11-07 18:32:00,47.6,29.4,30.12,NE,46,3.0,13.0,49,0.00,,OVC055,0.04,VWS V14.01,2013-11-07 23:32:00,
2013-11-07 18:37:00,47.4,30.2,30.12,NNE,24,3.0,13.0,51,0.00,,OVC055,0.04,VWS V14.01,2013-11-07 23:37:00,
2013-11-07 18:42:00,47.2,30.5,30.13,NE,34,6.0,13.0,52,0.00,,OVC055,0.04,VWS V14.01,2013-11-07 23:42:00,
2013-11-07 18:47:00,47.0,30.8,30.12,NNE,14,8.0,13.0,53,0.00,,OVC055,0.04,VWS V14.01,2013-11-07 23:47:00,
2013-11-07 18:52:00,46.8,31.0,30.13,NNE,28,6.0,13.0,54,0.00,,OVC055,0.04,VWS V14.01,2013-11-07 23:52:00,
2013-11-07 18:57:00,46.7,31.0,30.13,NNE,17,11.0,13.0,54,0.00,,OVC055,0.04,VWS V14.01,2013-11-07 23:57:00,
2013-11-07 19:00:00,46.7,31.0,30.13,NNE,16,10.0,13.0,54,0.00,,OVC055,0.04,VWS V14.01,2013-11-08 00:00:00,
2013-11-07 19:02:00,46.6,30.9,30.12,NE,54,12.0,14.0,54,0.00,,OVC055,0.04,VWS V14.01,2013-11-08 00:02:00,
2013-11-07 19:07:00,46.4,31.1,30.13,NE,34,15.0,17.0,55,0.00,,OVC055,0.04,VWS V14.01,2013-11-08 00:07:00,
2013-11-07 19:12:00,46.3,31.5,30.13,NNW,340,9.0,17.0,56,0.00,,OVC055,0.04,VWS V14.01,2013-11-08 00:12:00,
2013-11-07 19:17:00,46.0,31.6,30.14,NNE,26,9.0,17.0,57,0.00,,OVC055,0.04,VWS V14.01,2013-11-08 00:17:00,
2013-11-07 19:22:00,46.0,32.1,30.13,NE,47,7.0,17.0,58,0.00,,OVC055,0.04,VWS V14.01,2013-11-08 00:22:00,
2013-11-07 19:27:00,45.9,32.0,30.14,North,11,8.0,17.0,58,0.00,,OVC055,0.04,VWS V14.01,2013-11-08 00:27:00,
2013-11-07 19:30:00,45.9,32.0,30.14,ENE,62,7.0,17.0,58,0.00,,OVC055,0.04,VWS V14.01,2013-11-08 00:30:00,
2013-11-07 19:32:00,45.8,32.3,30.14,NE,43,5.0,11.0,59,0.00,,OVC055,0.04,VWS V14.01,2013-11-08 00:32:00,
2013-11-07 19:37:00,45.5,32.4,30.14,NNE,13,14.0,14.0,60,0.00,,OVC055,0.04,VWS V14.01,2013-11-08 00:37:00,
2013-11-07 19:42:00,45.4,32.8,30.14,NE,40,15.0,19.0,61,0.00,,OVC055,0.04,VWS V14.01,2013-11-08 00:42:00,
2013-11-07 19:47:00,45.4,32.8,30.14,NNE,29,6.0,19.0,61,0.00,,OVC055,0.04,VWS V14.01,2013-11-08 00:47:00,
2013-11-07 19:52:00,45.4,33.2,30.14,NNE,30,13.0,19.0,62,0.00,,OVC055,0.04,VWS V14.01,2013-11-08 00:52:00,
2013-11-07 19:57:00,45.4,33.2,30.14,North,5,9.0,19.0,62,0.00,,OVC055,0.04,VWS V14.01,2013-11-08 00:57:00,
2013-11-07 20:00:00,45.3,33.5,30.14,NE,40,5.0,19.0,63,0.00,,OVC055,0.04,VWS V14.01,2013-11-08 01:00:00,
2013-11-07 20:02:00,45.2,33.4,30.14,NNE,13,6.0,13.0,63,0.00,,OVC055,0.04,VWS V14.01,2013-11-08 01:02:00,
2013-11-07 20:07:00,45.1,33.7,30.13,NNE,14,5.0,13.0,64,0.00,,OVC055,0.04,VWS V14.01,2013-11-08 01:07:00,
2013-11-07 20:12:00,45.1,33.3,30.13,NNE,22,6.0,13.0,63,0.00,,OVC055,0.04,VWS V14.01,2013-11-08 01:12:00,
2013-11-07 20:17:00,45.0,33.6,30.13,NNW,346,8.0,13.0,64,0.00,,OVC055,0.04,VWS V14.01,2013-11-08 01:17:00,
2013-11-07 20:22:00,44.9,33.5,30.13,NNE,28,3.0,13.0,64,0.00,,OVC055,0.04,VWS V14.01,2013-11-08 01:22:00,
2013-11-07 20:27:00,44.9,33.5,30.14,ENE,59,3.0,13.0,64,0.00,,OVC055,0.04,VWS V14.01,2013-11-08 01:27:00,
2013-11-07 20:30:00,44.9,33.5,30.14,NE,37,6.0,13.0,64,0.00,,OVC055,0.04,VWS V14.01,2013-11-08 01:30:00,
2013-11-07 20:32:00,44.8,33.4,30.13,SSE,156,1.0,7.0,64,0.00,,OVC055,0.04,VWS V14.01,2013-11-08 01:32:00,
2013-11-07 20:37:00,44.7,33.3,30.14,NE,50,1.0,7.0,64,0.00,,OVC055,0.04,VWS V14.01,2013-11-08 01:37:00,
2013-11-07 20:42:00,44.7,33.3,30.14,NE,36,4.0,10.0,64,0.00,,OVC055,0.04,VWS V14.01,2013-11-08 01:42:00,
2013-11-07 20:47:00,44.6,33.2,30.14,NE,46,5.0,10.0,64,0.00,,OVC055,0.04,VWS V14.01,2013-11-08 01:47:00,
2013-11-07 20:52:00,44.5,33.1,30.13,NNE,15,4.0,10.0,64,0.00,,OVC055,0.04,VWS V14.01,2013-11-08 01:52:00,
2013-11-07 20:57:00,44.5,33.1,30.14,NE,51,2.0,11.0,64,0.00,,OVC055,0.04,VWS V14.01,2013-11-08 01:57:00,
2013-11-07 21:00:00,44.5,32.7,30.14,North,9,6.0,11.0,63,0.00,,OVC055,0.04,VWS V14.01,2013-11-08 02:00:00,
2013-11-07 21:02:00,44.5,33.1,30.14,NE,39,4.0,10.0,64,0.00,,OVC055,0.04,VWS V14.01,2013-11-08 02:02:00,
2013-11-07 21:07:00,44.3,32.9,30.14,NNE,20,2.0,10.0,64,0.00,,OVC055,0.04,VWS V14.01,2013-11-08 02:07:00,
2013-11-07 21:12:00,44.3,32.5,30.14,NNE,27,1.0,10.0,63,0.00,,OVC055,0.04,VWS V14.01,2013-11-08 02:12:00,
2013-11-07 21:17:00,44.4,32.6,30.14,ENE,63,0.0,10.0,63,0.00,,OVC055,0.04,VWS V14.01,2013-11-08 02:17:00,
2013-11-07 21:22:00,44.3,32.5,30.14,NE,46,4.0,10.0,63,0.00,,OVC055,0.04,VWS V14.01,2013-11-08 02:22:00,
2013-11-07 21:27:00,44.5,32.3,30.14,ESE,114,1.0,11.0,62,0.00,,OVC055,0.04,VWS V14.01,2013-11-08 02:27:00,
2013-11-07 21:30:00,44.5,32.3,30.14,NE,51,10.0,11.0,62,0.00,,OVC055,0.04,VWS V14.01,2013-11-08 02:30:00,
2013-11-07 21:32:00,44.5,32.3,30.14,NNE,22,5.0,10.0,62,0.00,,OVC055,0.04,VWS V14.01,2013-11-08 02:32:00,
2013-11-07 21:37:00,44.3,32.1,30.15,NE,38,7.0,10.0,62,0.00,,OVC055,0.04,VWS V14.01,2013-11-08 02:37:00,
2013-11-07 21:42:00,44.3,32.1,30.15,NNE,32,3.0,10.0,62,0.00,,OVC055,0.04,VWS V14.01,2013-11-08 02:42:00,
2013-11-07 21:47:00,44.2,32.0,30.15,NNE,31,5.0,10.0,62,0.00,,OVC055,0.04,VWS V14.01,2013-11-08 02:47:00,
2013-11-07 21:52:00,44.3,32.1,30.15,NNE,19,9.0,10.0,62,0.00,,OVC055,0.04,VWS V14.01,2013-11-08 02:52:00,
2013-11-07 21:57:00,44.3,31.7,30.15,NNE,28,4.0,10.0,61,0.00,,OVC055,0.04,VWS V14.01,2013-11-08 02:57:00,
2013-11-07 22:00:00,44.3,31.7,30.15,NE,43,7.0,10.0,61,0.00,,OVC055,0.04,VWS V14.01,2013-11-08 03:00:00,
2013-11-07 22:02:00,44.4,31.4,30.15,NNE,17,3.0,10.0,60,0.00,,OVC055,0.04,VWS V14.01,2013-11-08 03:02:00,
2013-11-07 22:07:00,44.3,31.3,30.15,NNE,14,6.0,10.0,60,0.00,,OVC055,0.04,VWS V14.01,2013-11-08 03:07:00,
2013-11-07 22:12:00,44.4,31.0,30.15,NNE,25,2.0,10.0,59,0.00,,OVC055,0.04,VWS V14.01,2013-11-08 03:12:00,
2013-11-07 22:17:00,44.3,30.5,30.16,ENE,57,2.0,11.0,58,0.00,,OVC055,0.04,VWS V14.01,2013-11-08 03:17:00,
2013-11-07 22:22:00,44.2,30.4,30.16,NE,53,2.0,11.0,58,0.00,,OVC055,0.04,VWS V14.01,2013-11-08 03:22:00,
2013-11-07 22:27:00,44.0,30.2,30.15,NE,40,6.0,11.0,58,0.00,,OVC055,0.04,VWS V14.01,2013-11-08 03:27:00,
2013-11-07 22:30:00,44.0,30.6,30.15,ESE,107,3.0,11.0,59,0.00,,OVC055,0.04,VWS V14.01,2013-11-08 03:30:00,
2013-11-07 22:32:00,43.8,30.0,30.15,NE,42,7.0,7.0,58,0.00,,OVC055,0.04,VWS V14.01,2013-11-08 03:32:00,
2013-11-07 22:37:00,43.8,29.6,30.15,NE,34,6.0,11.0,57,0.00,,OVC055,0.04,VWS V14.01,2013-11-08 03:37:00,
2013-11-07 22:42:00,43.8,29.6,30.16,North,360,7.0,11.0,57,0.00,,OVC055,0.04,VWS V14.01,2013-11-08 03:42:00,
2013-11-07 22:47:00,43.8,29.1,30.16,NNE,24,4.0,11.0,56,0.00,,OVC055,0.04,VWS V14.01,2013-11-08 03:47:00,
2013-11-07 22:52:00,43.7,29.0,30.16,NE,38,2.0,11.0,56,0.00,,OVC055,0.04,VWS V14.01,2013-11-08 03:52:00,
2013-11-07 22:56:00,43.7,29.0,30.16,NE,38,5.0,11.0,56,0.00,,OVC055,0.04,VWS V14.01,2013-11-08 03:56:00,
2013-11-07 23:00:00,43.7,29.0,30.16,NNE,29,7.0,11.0,56,0.00,,OVC055,0.04,VWS V14.01,2013-11-08 04:00:00,
2013-11-07 23:01:00,43.8,28.2,30.16,NNE,19,6.0,10.0,54,0.00,,OVC055,0.04,VWS V14.01,2013-11-08 04:01:00,
2013-11-07 23:06:00,43.8,28.2,30.16,NNE,32,2.0,10.0,54,0.00,,OVC055,0.04,VWS V14.01,2013-11-08 04:06:00,
2013-11-07 23:11:00,43.6,28.1,30.16,NNE,22,6.0,10.0,54,0.00,,OVC055,0.04,VWS V14.01,2013-11-08 04:11:00,
2013-11-07 23:16:00,43.8,28.2,30.16,NE,36,5.0,10.0,54,0.00,,OVC055,0.04,VWS V14.01,2013-11-08 04:16:00,
2013-11-07 23:21:00,43.7,28.2,30.16,NNE,17,6.0,10.0,54,0.00,,OVC055,0.04,VWS V14.01,2013-11-08 04:21:00,
2013-11-07 23:26:00,43.7,28.2,30.16,NNE,32,4.0,10.0,54,0.00,,OVC055,0.04,VWS V14.01,2013-11-08 04:26:00,
2013-11-07 23:30:00,43.6,28.1,30.16,NE,46,6.0,10.0,54,0.00,,OVC055,0.04,VWS V14.01,2013-11-08 04:30:00,
2013-11-07 23:31:00,43.6,28.1,30.16,NE,43,6.0,11.0,54,0.00,,OVC055,0.04,VWS V14.01,2013-11-08 04:31:00,
2013-11-07 23:36:00,43.6,28.5,30.16,NE,49,4.0,11.0,55,0.00,,OVC055,0.04,VWS V14.01,2013-11-08 04:36:00,
2013-11-07 23:41:00,43.4,28.3,30.16,NE,35,8.0,11.0,55,0.00,,OVC055,0.04,VWS V14.01,2013-11-08 04:41:00,
2013-11-07 23:46:00,43.4,28.8,30.16,NE,49,6.0,11.0,56,0.00,,OVC055,0.04,VWS V14.01,2013-11-08 04:46:00,
2013-11-07 23:51:00,43.3,28.2,30.17,NE,44,4.0,11.0,55,0.00,,OVC055,0.04,VWS V14.01,2013-11-08 04:51:00,
2013-11-07 23:56:00,43.2,28.1,30.17,NNE,32,8.0,11.0,55,0.00,,OVC055,0.04,VWS V14.01,2013-11-08 04:56:00,